sensor_id;sensor_type;location;lat;lon;timestamp;temperature;humidity
997;DHT22;487;50.126;8.698;2023-02-26T00:01:44;2.60;99.90
997;DHT22;487;50.126;8.698;2023-02-26T00:09:22;2.60;99.90
997;DHT22;487;50.126;8.698;2023-02-26T00:16:54;2.50;99.90
997;DHT22;487;50.126;8.698;2023-02-26T00:34:18;2.40;99.90
997;DHT22;487;50.126;8.698;2023-02-26T00:36:55;2.40;99.90
997;DHT22;487;50.126;8.698;2023-02-26T00:39:34;2.40;99.90
997;DHT22;487;50.126;8.698;2023-02-26T00:47:08;2.40;99.90
997;DHT22;487;50.126;8.698;2023-02-26T00:49:48;2.40;99.90
997;DHT22;487;50.126;8.698;2023-02-26T00:52:25;2.40;99.90
997;DHT22;487;50.126;8.698;2023-02-26T00:57:23;2.00;99.90
997;DHT22;487;50.126;8.698;2023-02-26T00:59:52;2.40;99.90
997;DHT22;487;50.126;8.698;2023-02-26T05:00:32;0.70;99.90
997;DHT22;487;50.126;8.698;2023-02-26T05:03:00;0.60;99.90
997;DHT22;487;50.126;8.698;2023-02-26T05:05:28;0.70;99.90
997;DHT22;487;50.126;8.698;2023-02-26T05:07:56;0.50;99.90
997;DHT22;487;50.126;8.698;2023-02-26T05:10:24;0.40;99.90
997;DHT22;487;50.126;8.698;2023-02-26T05:12:52;0.40;99.90
997;DHT22;487;50.126;8.698;2023-02-26T05:15:20;0.40;99.90
997;DHT22;487;50.126;8.698;2023-02-26T05:17:49;0.40;99.90
997;DHT22;487;50.126;8.698;2023-02-26T05:20:17;0.40;99.90
997;DHT22;487;50.126;8.698;2023-02-26T05:22:45;0.40;99.90
997;DHT22;487;50.126;8.698;2023-02-26T05:25:13;0.40;99.90
997;DHT22;487;50.126;8.698;2023-02-26T05:27:41;0.40;99.90
997;DHT22;487;50.126;8.698;2023-02-26T05:30:12;0.40;99.90
997;DHT22;487;50.126;8.698;2023-02-26T05:32:40;0.40;99.90
997;DHT22;487;50.126;8.698;2023-02-26T05:35:10;0.30;99.90
997;DHT22;487;50.126;8.698;2023-02-26T05:37:38;0.40;99.90
997;DHT22;487;50.126;8.698;2023-02-26T05:40:08;0.30;99.90
997;DHT22;487;50.126;8.698;2023-02-26T05:42:37;0.40;99.90
997;DHT22;487;50.126;8.698;2023-02-26T05:45:06;0.40;99.90
997;DHT22;487;50.126;8.698;2023-02-26T05:47:35;0.40;99.90
997;DHT22;487;50.126;8.698;2023-02-26T05:50:03;0.40;99.90
997;DHT22;487;50.126;8.698;2023-02-26T05:52:33;0.40;99.90
997;DHT22;487;50.126;8.698;2023-02-26T05:55:01;0.50;99.90
997;DHT22;487;50.126;8.698;2023-02-26T05:57:29;0.50;99.90
997;DHT22;487;50.126;8.698;2023-02-26T05:59:57;0.50;99.90
997;DHT22;487;50.126;8.698;2023-02-26T06:02:25;0.40;99.90
997;DHT22;487;50.126;8.698;2023-02-26T06:04:53;0.50;99.90
997;DHT22;487;50.126;8.698;2023-02-26T06:07:21;0.40;99.90
997;DHT22;487;50.126;8.698;2023-02-26T06:09:51;0.40;99.90
997;DHT22;487;50.126;8.698;2023-02-26T06:12:19;0.50;99.90
997;DHT22;487;50.126;8.698;2023-02-26T06:14:46;0.40;99.90
997;DHT22;487;50.126;8.698;2023-02-26T06:17:14;0.40;99.90
997;DHT22;487;50.126;8.698;2023-02-26T06:19:42;0.50;99.90
997;DHT22;487;50.126;8.698;2023-02-26T06:22:11;0.50;99.90
997;DHT22;487;50.126;8.698;2023-02-26T06:24:39;0.40;99.90
997;DHT22;487;50.126;8.698;2023-02-26T06:27:08;0.50;99.90
997;DHT22;487;50.126;8.698;2023-02-26T06:32:05;0.40;99.90
997;DHT22;487;50.126;8.698;2023-02-26T06:34:33;0.40;99.90
997;DHT22;487;50.126;8.698;2023-02-26T06:37:01;0.40;99.90
997;DHT22;487;50.126;8.698;2023-02-26T06:39:29;0.40;99.90
997;DHT22;487;50.126;8.698;2023-02-26T06:41:56;0.40;99.90
997;DHT22;487;50.126;8.698;2023-02-26T06:44:26;0.40;99.90
997;DHT22;487;50.126;8.698;2023-02-26T06:46:53;0.40;99.90
997;DHT22;487;50.126;8.698;2023-02-26T06:49:21;0.40;99.90
997;DHT22;487;50.126;8.698;2023-02-26T06:51:49;0.40;99.90
997;DHT22;487;50.126;8.698;2023-02-26T06:54:17;0.40;99.90
997;DHT22;487;50.126;8.698;2023-02-26T06:56:44;0.50;99.90
997;DHT22;487;50.126;8.698;2023-02-26T06:59:13;0.40;99.90
997;DHT22;487;50.126;8.698;2023-02-26T07:01:42;0.40;99.90
997;DHT22;487;50.126;8.698;2023-02-26T07:04:10;0.40;99.90
997;DHT22;487;50.126;8.698;2023-02-26T07:06:37;0.40;99.90
997;DHT22;487;50.126;8.698;2023-02-26T07:09:06;0.40;99.90
997;DHT22;487;50.126;8.698;2023-02-26T07:11:34;0.50;99.90
997;DHT22;487;50.126;8.698;2023-02-26T07:14:02;0.50;99.90
997;DHT22;487;50.126;8.698;2023-02-26T07:16:29;0.50;99.90
997;DHT22;487;50.126;8.698;2023-02-26T07:18:58;0.60;99.90
997;DHT22;487;50.126;8.698;2023-02-26T07:21:26;0.50;99.90
997;DHT22;487;50.126;8.698;2023-02-26T07:23:54;0.70;99.90
997;DHT22;487;50.126;8.698;2023-02-26T07:26:22;0.60;99.90
997;DHT22;487;50.126;8.698;2023-02-26T07:28:50;0.70;99.90
997;DHT22;487;50.126;8.698;2023-02-26T07:31:18;0.70;99.90
997;DHT22;487;50.126;8.698;2023-02-26T07:33:46;0.70;99.90
997;DHT22;487;50.126;8.698;2023-02-26T07:36:15;0.70;99.90
997;DHT22;487;50.126;8.698;2023-02-26T07:38:43;0.80;99.90
997;DHT22;487;50.126;8.698;2023-02-26T07:41:11;0.90;99.90
997;DHT22;487;50.126;8.698;2023-02-26T07:43:39;1.00;99.90
997;DHT22;487;50.126;8.698;2023-02-26T07:46:08;1.00;99.90
997;DHT22;487;50.126;8.698;2023-02-26T07:48:36;1.00;99.90
997;DHT22;487;50.126;8.698;2023-02-26T07:51:04;1.00;99.90
997;DHT22;487;50.126;8.698;2023-02-26T07:53:34;1.10;99.90
997;DHT22;487;50.126;8.698;2023-02-26T07:56:03;1.00;99.90
997;DHT22;487;50.126;8.698;2023-02-26T07:58:31;1.10;99.90
997;DHT22;487;50.126;8.698;2023-02-26T08:00:59;1.10;99.90
997;DHT22;487;50.126;8.698;2023-02-26T08:03:27;1.10;99.90
997;DHT22;487;50.126;8.698;2023-02-26T08:05:56;1.20;99.90
997;DHT22;487;50.126;8.698;2023-02-26T08:08:25;1.30;99.90
997;DHT22;487;50.126;8.698;2023-02-26T08:10:55;1.40;99.90
997;DHT22;487;50.126;8.698;2023-02-26T08:13:22;1.30;99.90
997;DHT22;487;50.126;8.698;2023-02-26T08:15:50;1.30;99.90
997;DHT22;487;50.126;8.698;2023-02-26T08:18:18;1.30;99.90
997;DHT22;487;50.126;8.698;2023-02-26T08:20:47;1.20;99.90
997;DHT22;487;50.126;8.698;2023-02-26T08:23:17;1.30;99.90
997;DHT22;487;50.126;8.698;2023-02-26T08:25:45;1.30;99.90
997;DHT22;487;50.126;8.698;2023-02-26T08:28:15;1.40;99.90
997;DHT22;487;50.126;8.698;2023-02-26T08:30:43;1.50;99.90
997;DHT22;487;50.126;8.698;2023-02-26T08:33:11;1.50;99.90
997;DHT22;487;50.126;8.698;2023-02-26T08:35:39;1.50;99.90
997;DHT22;487;50.126;8.698;2023-02-26T08:38:07;1.40;99.90
997;DHT22;487;50.126;8.698;2023-02-26T08:40:35;1.40;99.90
997;DHT22;487;50.126;8.698;2023-02-26T08:43:02;1.40;99.90
997;DHT22;487;50.126;8.698;2023-02-26T08:45:32;1.40;99.90
997;DHT22;487;50.126;8.698;2023-02-26T08:48:00;1.30;99.90
997;DHT22;487;50.126;8.698;2023-02-26T08:50:30;1.30;99.90
997;DHT22;487;50.126;8.698;2023-02-26T08:52:58;1.20;99.90
997;DHT22;487;50.126;8.698;2023-02-26T08:55:25;1.30;99.90
997;DHT22;487;50.126;8.698;2023-02-26T08:57:53;1.40;99.90
997;DHT22;487;50.126;8.698;2023-02-26T09:00:22;1.40;99.90
997;DHT22;487;50.126;8.698;2023-02-26T09:02:51;1.50;99.90
997;DHT22;487;50.126;8.698;2023-02-26T09:05:19;1.50;99.90
997;DHT22;487;50.126;8.698;2023-02-26T09:07:47;1.60;99.90
997;DHT22;487;50.126;8.698;2023-02-26T09:10:16;1.60;99.90
997;DHT22;487;50.126;8.698;2023-02-26T09:12:44;1.80;99.90
997;DHT22;487;50.126;8.698;2023-02-26T09:15:12;1.80;99.90
997;DHT22;487;50.126;8.698;2023-02-26T09:17:40;1.80;99.90
997;DHT22;487;50.126;8.698;2023-02-26T09:20:11;1.90;99.90
997;DHT22;487;50.126;8.698;2023-02-26T09:22:39;1.70;99.90
997;DHT22;487;50.126;8.698;2023-02-26T09:25:08;1.70;99.90
997;DHT22;487;50.126;8.698;2023-02-26T09:27:36;1.80;99.90
997;DHT22;487;50.126;8.698;2023-02-26T09:30:05;1.90;99.90
997;DHT22;487;50.126;8.698;2023-02-26T09:32:33;2.00;99.90
997;DHT22;487;50.126;8.698;2023-02-26T09:35:01;2.10;99.90
997;DHT22;487;50.126;8.698;2023-02-26T09:37:31;2.10;99.90
997;DHT22;487;50.126;8.698;2023-02-26T09:39:59;2.10;99.90
997;DHT22;487;50.126;8.698;2023-02-26T09:42:42;2.20;99.90
997;DHT22;487;50.126;8.698;2023-02-26T09:45:17;2.10;99.90
997;DHT22;487;50.126;8.698;2023-02-26T09:47:50;2.20;99.90
997;DHT22;487;50.126;8.698;2023-02-26T09:50:23;2.20;99.90
997;DHT22;487;50.126;8.698;2023-02-26T09:52:55;2.30;99.90
997;DHT22;487;50.126;8.698;2023-02-26T09:55:28;2.30;99.90
997;DHT22;487;50.126;8.698;2023-02-26T09:57:59;2.30;99.90
997;DHT22;487;50.126;8.698;2023-02-26T10:00:33;2.40;99.90
997;DHT22;487;50.126;8.698;2023-02-26T10:03:11;2.40;99.90
997;DHT22;487;50.126;8.698;2023-02-26T10:05:51;2.40;99.90
997;DHT22;487;50.126;8.698;2023-02-26T10:08:27;2.50;99.90
997;DHT22;487;50.126;8.698;2023-02-26T10:11:03;2.50;99.90
997;DHT22;487;50.126;8.698;2023-02-26T10:13:41;2.60;99.90
997;DHT22;487;50.126;8.698;2023-02-26T10:16:26;2.60;99.90
997;DHT22;487;50.126;8.698;2023-02-26T10:18:58;2.70;99.90
997;DHT22;487;50.126;8.698;2023-02-26T10:21:31;2.60;99.90
997;DHT22;487;50.126;8.698;2023-02-26T10:24:06;2.90;99.90
997;DHT22;487;50.126;8.698;2023-02-26T10:26:39;2.90;99.90
997;DHT22;487;50.126;8.698;2023-02-26T10:29:17;3.10;99.90
997;DHT22;487;50.126;8.698;2023-02-26T10:31:56;3.30;99.90
997;DHT22;487;50.126;8.698;2023-02-26T10:34:30;3.30;99.90
997;DHT22;487;50.126;8.698;2023-02-26T10:37:03;3.30;99.90
997;DHT22;487;50.126;8.698;2023-02-26T10:39:42;3.30;99.90
997;DHT22;487;50.126;8.698;2023-02-26T10:42:14;3.20;99.90
997;DHT22;487;50.126;8.698;2023-02-26T10:44:50;3.20;99.90
997;DHT22;487;50.126;8.698;2023-02-26T10:47:26;3.20;99.90
997;DHT22;487;50.126;8.698;2023-02-26T10:50:00;3.00;99.90
997;DHT22;487;50.126;8.698;2023-02-26T10:52:31;3.00;99.90
997;DHT22;487;50.126;8.698;2023-02-26T10:55:18;2.90;99.90
997;DHT22;487;50.126;8.698;2023-02-26T10:57:52;2.90;99.90
997;DHT22;487;50.126;8.698;2023-02-26T11:00:21;2.90;99.90
997;DHT22;487;50.126;8.698;2023-02-26T11:02:51;2.90;99.90
997;DHT22;487;50.126;8.698;2023-02-26T11:05:22;2.90;99.90
997;DHT22;487;50.126;8.698;2023-02-26T11:07:53;2.80;99.90
997;DHT22;487;50.126;8.698;2023-02-26T11:10:25;3.00;99.90
997;DHT22;487;50.126;8.698;2023-02-26T11:12:54;3.00;99.90
997;DHT22;487;50.126;8.698;2023-02-26T11:15:25;3.20;99.90
997;DHT22;487;50.126;8.698;2023-02-26T11:17:56;3.30;99.90
997;DHT22;487;50.126;8.698;2023-02-26T11:20:29;3.40;99.90
997;DHT22;487;50.126;8.698;2023-02-26T11:22:59;3.40;99.90
997;DHT22;487;50.126;8.698;2023-02-26T11:25:30;3.50;99.90
997;DHT22;487;50.126;8.698;2023-02-26T11:28:03;3.70;99.90
997;DHT22;487;50.126;8.698;2023-02-26T11:30:35;3.70;99.90
997;DHT22;487;50.126;8.698;2023-02-26T11:33:13;3.70;99.90
997;DHT22;487;50.126;8.698;2023-02-26T11:35:44;3.80;99.90
997;DHT22;487;50.126;8.698;2023-02-26T11:38:17;3.90;99.90
997;DHT22;487;50.126;8.698;2023-02-26T11:40:50;3.90;99.90
997;DHT22;487;50.126;8.698;2023-02-26T11:43:21;4.00;99.90
997;DHT22;487;50.126;8.698;2023-02-26T11:45:52;3.90;99.90
997;DHT22;487;50.126;8.698;2023-02-26T11:48:24;3.80;99.90
997;DHT22;487;50.126;8.698;2023-02-26T11:50:59;3.80;99.90
997;DHT22;487;50.126;8.698;2023-02-26T11:53:31;3.80;99.90
997;DHT22;487;50.126;8.698;2023-02-26T11:56:02;3.80;99.90
997;DHT22;487;50.126;8.698;2023-02-26T11:58:36;3.90;99.90
997;DHT22;487;50.126;8.698;2023-02-26T12:01:06;4.00;99.90
997;DHT22;487;50.126;8.698;2023-02-26T12:03:36;4.00;99.90
997;DHT22;487;50.126;8.698;2023-02-26T12:06:09;4.00;99.90
997;DHT22;487;50.126;8.698;2023-02-26T12:08:42;4.00;99.90
997;DHT22;487;50.126;8.698;2023-02-26T12:11:42;3.90;99.90
997;DHT22;487;50.126;8.698;2023-02-26T12:14:33;3.90;99.90
997;DHT22;487;50.126;8.698;2023-02-26T12:17:15;4.00;99.90
997;DHT22;487;50.126;8.698;2023-02-26T12:19:51;4.10;99.90
997;DHT22;487;50.126;8.698;2023-02-26T12:22:39;4.20;99.90
997;DHT22;487;50.126;8.698;2023-02-26T12:25:31;4.00;99.90
997;DHT22;487;50.126;8.698;2023-02-26T12:31:13;3.90;99.90
997;DHT22;487;50.126;8.698;2023-02-26T12:33:50;3.90;99.90
997;DHT22;487;50.126;8.698;2023-02-26T12:36:29;3.90;99.90
997;DHT22;487;50.126;8.698;2023-02-26T12:39:29;4.00;99.90
997;DHT22;487;50.126;8.698;2023-02-26T12:42:08;4.10;99.90
997;DHT22;487;50.126;8.698;2023-02-26T12:45:00;4.20;99.90
997;DHT22;487;50.126;8.698;2023-02-26T12:47:41;4.20;99.90
997;DHT22;487;50.126;8.698;2023-02-26T12:50:32;4.30;99.90
997;DHT22;487;50.126;8.698;2023-02-26T12:53:39;4.30;99.90
997;DHT22;487;50.126;8.698;2023-02-26T12:56:28;4.20;99.90
997;DHT22;487;50.126;8.698;2023-02-26T12:59:15;6.50;99.90
997;DHT22;487;50.126;8.698;2023-02-26T13:02:14;4.00;99.90
997;DHT22;487;50.126;8.698;2023-02-26T13:05:17;4.00;99.90
997;DHT22;487;50.126;8.698;2023-02-26T13:07:59;4.00;99.90
997;DHT22;487;50.126;8.698;2023-02-26T13:10:38;4.10;99.90
997;DHT22;487;50.126;8.698;2023-02-26T13:13:23;4.10;99.90
997;DHT22;487;50.126;8.698;2023-02-26T13:16:12;4.00;99.90
997;DHT22;487;50.126;8.698;2023-02-26T13:18:48;4.00;99.90
997;DHT22;487;50.126;8.698;2023-02-26T13:21:23;4.00;99.90
997;DHT22;487;50.126;8.698;2023-02-26T13:23:55;4.10;99.90
997;DHT22;487;50.126;8.698;2023-02-26T13:26:25;4.10;99.90
997;DHT22;487;50.126;8.698;2023-02-26T13:28:57;4.20;99.90
997;DHT22;487;50.126;8.698;2023-02-26T13:31:28;4.30;99.90
997;DHT22;487;50.126;8.698;2023-02-26T13:34:03;4.30;99.90
997;DHT22;487;50.126;8.698;2023-02-26T13:36:33;4.30;99.90
997;DHT22;487;50.126;8.698;2023-02-26T13:39:20;4.30;99.90
997;DHT22;487;50.126;8.698;2023-02-26T13:41:58;4.30;99.90
997;DHT22;487;50.126;8.698;2023-02-26T13:44:33;4.20;99.90
997;DHT22;487;50.126;8.698;2023-02-26T13:47:16;4.20;99.90
997;DHT22;487;50.126;8.698;2023-02-26T13:50:00;4.20;99.90
997;DHT22;487;50.126;8.698;2023-02-26T13:52:30;4.30;99.90
997;DHT22;487;50.126;8.698;2023-02-26T13:54:58;4.10;99.90
997;DHT22;487;50.126;8.698;2023-02-26T13:57:42;4.10;99.90
997;DHT22;487;50.126;8.698;2023-02-26T14:00:25;4.20;99.90
997;DHT22;487;50.126;8.698;2023-02-26T14:02:55;4.20;99.90
997;DHT22;487;50.126;8.698;2023-02-26T14:05:31;4.10;99.90
997;DHT22;487;50.126;8.698;2023-02-26T14:08:20;4.10;99.90
997;DHT22;487;50.126;8.698;2023-02-26T14:10:55;4.10;99.90
997;DHT22;487;50.126;8.698;2023-02-26T14:13:32;4.10;99.90
997;DHT22;487;50.126;8.698;2023-02-26T14:16:00;4.20;99.90
997;DHT22;487;50.126;8.698;2023-02-26T14:18:34;4.40;99.90
997;DHT22;487;50.126;8.698;2023-02-26T14:21:34;4.70;99.90
997;DHT22;487;50.126;8.698;2023-02-26T14:24:10;4.80;99.90
997;DHT22;487;50.126;8.698;2023-02-26T14:26:44;4.80;99.90
997;DHT22;487;50.126;8.698;2023-02-26T14:29:18;4.90;99.90
997;DHT22;487;50.126;8.698;2023-02-26T14:32:03;4.90;99.90
997;DHT22;487;50.126;8.698;2023-02-26T14:34:35;4.70;99.90
997;DHT22;487;50.126;8.698;2023-02-26T14:37:07;4.60;99.90
997;DHT22;487;50.126;8.698;2023-02-26T14:39:40;4.60;99.90
997;DHT22;487;50.126;8.698;2023-02-26T14:42:11;4.60;99.90
997;DHT22;487;50.126;8.698;2023-02-26T14:44:45;4.60;99.90
997;DHT22;487;50.126;8.698;2023-02-26T14:47:15;4.60;99.90
997;DHT22;487;50.126;8.698;2023-02-26T14:49:45;4.60;99.90
997;DHT22;487;50.126;8.698;2023-02-26T14:52:53;4.70;99.90
997;DHT22;487;50.126;8.698;2023-02-26T14:55:43;4.30;99.90
997;DHT22;487;50.126;8.698;2023-02-26T14:58:30;4.20;99.90
997;DHT22;487;50.126;8.698;2023-02-26T15:01:07;4.10;99.90
997;DHT22;487;50.126;8.698;2023-02-26T15:04:05;4.20;99.90
997;DHT22;487;50.126;8.698;2023-02-26T15:06:51;4.30;99.90
997;DHT22;487;50.126;8.698;2023-02-26T15:09:28;4.30;99.90
997;DHT22;487;50.126;8.698;2023-02-26T15:12:11;4.30;99.90
997;DHT22;487;50.126;8.698;2023-02-26T15:15:02;4.40;99.90
997;DHT22;487;50.126;8.698;2023-02-26T15:17:43;4.30;99.90
997;DHT22;487;50.126;8.698;2023-02-26T15:20:22;4.30;99.90
997;DHT22;487;50.126;8.698;2023-02-26T15:23:17;4.30;99.90
997;DHT22;487;50.126;8.698;2023-02-26T15:25:49;4.10;99.90
997;DHT22;487;50.126;8.698;2023-02-26T15:28:21;4.10;99.90
997;DHT22;487;50.126;8.698;2023-02-26T15:30:52;4.00;99.90
997;DHT22;487;50.126;8.698;2023-02-26T15:33:23;4.10;99.90
997;DHT22;487;50.126;8.698;2023-02-26T15:35:54;4.10;99.90
997;DHT22;487;50.126;8.698;2023-02-26T15:38:22;4.00;99.90
997;DHT22;487;50.126;8.698;2023-02-26T15:40:53;3.90;99.90
997;DHT22;487;50.126;8.698;2023-02-26T15:43:24;3.90;99.90
997;DHT22;487;50.126;8.698;2023-02-26T15:45:55;3.80;99.90
997;DHT22;487;50.126;8.698;2023-02-26T15:48:27;3.70;99.90
997;DHT22;487;50.126;8.698;2023-02-26T15:50:58;3.80;99.90
997;DHT22;487;50.126;8.698;2023-02-26T15:53:29;3.90;99.90
997;DHT22;487;50.126;8.698;2023-02-26T15:56:03;4.00;99.90
997;DHT22;487;50.126;8.698;2023-02-26T15:58:35;4.00;99.90
997;DHT22;487;50.126;8.698;2023-02-26T16:01:04;4.20;99.90
997;DHT22;487;50.126;8.698;2023-02-26T16:03:34;4.50;99.90
997;DHT22;487;50.126;8.698;2023-02-26T16:06:04;4.90;99.90
997;DHT22;487;50.126;8.698;2023-02-26T16:08:33;5.00;99.90
997;DHT22;487;50.126;8.698;2023-02-26T16:11:02;5.40;99.90
997;DHT22;487;50.126;8.698;2023-02-26T16:13:33;6.40;99.90
997;DHT22;487;50.126;8.698;2023-02-26T16:16:06;7.10;99.90
997;DHT22;487;50.126;8.698;2023-02-26T16:18:36;7.50;99.90
997;DHT22;487;50.126;8.698;2023-02-26T16:21:07;7.70;99.90
997;DHT22;487;50.126;8.698;2023-02-26T16:23:40;8.20;99.90
997;DHT22;487;50.126;8.698;2023-02-26T16:26:14;8.30;99.90
997;DHT22;487;50.126;8.698;2023-02-26T16:28:44;8.10;99.90
997;DHT22;487;50.126;8.698;2023-02-26T16:31:17;7.70;99.90
997;DHT22;487;50.126;8.698;2023-02-26T16:33:53;6.80;99.90
997;DHT22;487;50.126;8.698;2023-02-26T16:36:23;6.80;99.90
997;DHT22;487;50.126;8.698;2023-02-26T16:39:08;6.30;99.90
997;DHT22;487;50.126;8.698;2023-02-26T16:41:39;5.90;99.90
997;DHT22;487;50.126;8.698;2023-02-26T16:44:38;5.80;99.90
997;DHT22;487;50.126;8.698;2023-02-26T16:47:11;5.70;99.90
997;DHT22;487;50.126;8.698;2023-02-26T16:49:40;5.60;99.90
997;DHT22;487;50.126;8.698;2023-02-26T16:52:14;5.20;99.90
997;DHT22;487;50.126;8.698;2023-02-26T16:54:48;4.60;99.90
997;DHT22;487;50.126;8.698;2023-02-26T16:57:23;4.30;99.90
997;DHT22;487;50.126;8.698;2023-02-26T16:59:54;4.30;99.90
997;DHT22;487;50.126;8.698;2023-02-26T17:02:25;4.10;99.90
997;DHT22;487;50.126;8.698;2023-02-26T17:04:58;3.90;99.90
997;DHT22;487;50.126;8.698;2023-02-26T17:07:30;3.90;99.90
997;DHT22;487;50.126;8.698;2023-02-26T17:10:03;3.70;99.90
997;DHT22;487;50.126;8.698;2023-02-26T17:12:42;3.60;99.90
997;DHT22;487;50.126;8.698;2023-02-26T17:15:17;3.40;99.90
997;DHT22;487;50.126;8.698;2023-02-26T17:17:46;4.30;99.90
997;DHT22;487;50.126;8.698;2023-02-26T17:20:15;3.40;99.90
997;DHT22;487;50.126;8.698;2023-02-26T17:22:43;3.30;99.90
997;DHT22;487;50.126;8.698;2023-02-26T17:25:14;3.30;99.90
997;DHT22;487;50.126;8.698;2023-02-26T17:27:45;3.30;99.90
997;DHT22;487;50.126;8.698;2023-02-26T17:30:15;3.20;99.90
997;DHT22;487;50.126;8.698;2023-02-26T17:32:44;3.30;99.90
997;DHT22;487;50.126;8.698;2023-02-26T17:35:13;3.30;99.90
997;DHT22;487;50.126;8.698;2023-02-26T17:37:42;3.30;99.90
997;DHT22;487;50.126;8.698;2023-02-26T17:40:17;3.30;99.90
997;DHT22;487;50.126;8.698;2023-02-26T17:42:47;3.30;99.90
997;DHT22;487;50.126;8.698;2023-02-26T17:45:16;3.30;99.90
997;DHT22;487;50.126;8.698;2023-02-26T17:47:46;3.30;99.90
997;DHT22;487;50.126;8.698;2023-02-26T17:50:26;3.30;99.90
997;DHT22;487;50.126;8.698;2023-02-26T17:52:55;3.20;99.90
997;DHT22;487;50.126;8.698;2023-02-26T17:55:23;3.20;99.90
997;DHT22;487;50.126;8.698;2023-02-26T17:57:53;3.20;99.90
997;DHT22;487;50.126;8.698;2023-02-26T18:00:22;3.20;99.90
997;DHT22;487;50.126;8.698;2023-02-26T18:02:49;3.20;99.90
997;DHT22;487;50.126;8.698;2023-02-26T18:05:18;3.20;99.90
997;DHT22;487;50.126;8.698;2023-02-26T18:07:47;3.20;99.90
997;DHT22;487;50.126;8.698;2023-02-26T18:10:18;3.20;99.90
997;DHT22;487;50.126;8.698;2023-02-26T18:12:47;3.20;99.90
997;DHT22;487;50.126;8.698;2023-02-26T18:15:16;3.20;99.90
997;DHT22;487;50.126;8.698;2023-02-26T18:17:45;3.20;99.90
997;DHT22;487;50.126;8.698;2023-02-26T18:20:20;3.20;99.90
997;DHT22;487;50.126;8.698;2023-02-26T18:22:48;3.20;99.90
997;DHT22;487;50.126;8.698;2023-02-26T18:25:16;3.20;99.90
997;DHT22;487;50.126;8.698;2023-02-26T18:27:48;3.20;99.90
997;DHT22;487;50.126;8.698;2023-02-26T18:30:20;3.20;99.90
997;DHT22;487;50.126;8.698;2023-02-26T18:32:48;3.30;99.90
997;DHT22;487;50.126;8.698;2023-02-26T18:35:16;3.20;99.90
997;DHT22;487;50.126;8.698;2023-02-26T18:37:45;3.10;99.90
997;DHT22;487;50.126;8.698;2023-02-26T18:40:14;3.20;99.90
997;DHT22;487;50.126;8.698;2023-02-26T18:42:43;3.10;99.90
997;DHT22;487;50.126;8.698;2023-02-26T18:45:11;3.00;99.90
997;DHT22;487;50.126;8.698;2023-02-26T18:47:40;3.00;99.90
997;DHT22;487;50.126;8.698;2023-02-26T18:50:11;3.00;99.90
997;DHT22;487;50.126;8.698;2023-02-26T18:52:40;3.00;99.90
997;DHT22;487;50.126;8.698;2023-02-26T18:55:09;3.00;99.90
997;DHT22;487;50.126;8.698;2023-02-26T18:57:38;2.90;99.90
997;DHT22;487;50.126;8.698;2023-02-26T19:00:07;2.90;99.90
997;DHT22;487;50.126;8.698;2023-02-26T19:02:37;2.90;99.90
997;DHT22;487;50.126;8.698;2023-02-26T19:05:07;2.90;99.90
997;DHT22;487;50.126;8.698;2023-02-26T19:07:35;2.90;99.90
997;DHT22;487;50.126;8.698;2023-02-26T19:10:05;2.90;99.90
997;DHT22;487;50.126;8.698;2023-02-26T19:12:33;2.90;99.90
997;DHT22;487;50.126;8.698;2023-02-26T19:15:01;2.80;99.90
997;DHT22;487;50.126;8.698;2023-02-26T19:17:29;2.80;99.90
997;DHT22;487;50.126;8.698;2023-02-26T19:19:57;2.90;99.90
997;DHT22;487;50.126;8.698;2023-02-26T19:22:26;2.90;99.90
997;DHT22;487;50.126;8.698;2023-02-26T19:24:54;2.80;99.90
997;DHT22;487;50.126;8.698;2023-02-26T19:27:22;2.80;99.90
997;DHT22;487;50.126;8.698;2023-02-26T19:29:50;2.70;99.90
997;DHT22;487;50.126;8.698;2023-02-26T19:32:18;2.80;99.90
997;DHT22;487;50.126;8.698;2023-02-26T19:34:46;2.80;99.90
997;DHT22;487;50.126;8.698;2023-02-26T19:37:13;2.80;99.90
997;DHT22;487;50.126;8.698;2023-02-26T19:39:43;2.80;99.90
997;DHT22;487;50.126;8.698;2023-02-26T19:42:11;2.80;99.90
997;DHT22;487;50.126;8.698;2023-02-26T19:47:08;2.60;99.90
997;DHT22;487;50.126;8.698;2023-02-26T19:49:36;2.60;99.90
997;DHT22;487;50.126;8.698;2023-02-26T19:52:03;2.60;99.90
997;DHT22;487;50.126;8.698;2023-02-26T19:54:33;2.50;99.90
997;DHT22;487;50.126;8.698;2023-02-26T19:57:02;2.50;99.90
997;DHT22;487;50.126;8.698;2023-02-26T19:59:30;2.40;99.90
997;DHT22;487;50.126;8.698;2023-02-26T20:01:58;2.30;99.90
997;DHT22;487;50.126;8.698;2023-02-26T20:04:27;2.30;99.90
997;DHT22;487;50.126;8.698;2023-02-26T20:06:54;2.30;99.90
997;DHT22;487;50.126;8.698;2023-02-26T20:09:22;2.30;99.90
997;DHT22;487;50.126;8.698;2023-02-26T20:11:50;2.30;99.90
997;DHT22;487;50.126;8.698;2023-02-26T20:14:19;2.10;99.90
997;DHT22;487;50.126;8.698;2023-02-26T20:16:47;2.10;99.90
997;DHT22;487;50.126;8.698;2023-02-26T20:19:15;2.10;99.90
997;DHT22;487;50.126;8.698;2023-02-26T20:21:43;2.00;99.90
997;DHT22;487;50.126;8.698;2023-02-26T20:24:11;1.90;99.90
997;DHT22;487;50.126;8.698;2023-02-26T20:26:40;1.90;99.90
997;DHT22;487;50.126;8.698;2023-02-26T20:29:08;1.90;99.90
997;DHT22;487;50.126;8.698;2023-02-26T20:31:37;1.90;99.90
997;DHT22;487;50.126;8.698;2023-02-26T20:34:05;1.90;99.90
997;DHT22;487;50.126;8.698;2023-02-26T20:36:33;1.90;99.90
997;DHT22;487;50.126;8.698;2023-02-26T20:39:01;1.80;99.90
997;DHT22;487;50.126;8.698;2023-02-26T20:41:29;1.70;99.90
997;DHT22;487;50.126;8.698;2023-02-26T20:43:57;1.70;99.90
997;DHT22;487;50.126;8.698;2023-02-26T20:46:24;1.70;99.90
997;DHT22;487;50.126;8.698;2023-02-26T20:48:54;1.70;99.90
997;DHT22;487;50.126;8.698;2023-02-26T20:51:22;1.70;99.90
997;DHT22;487;50.126;8.698;2023-02-26T20:53:50;1.60;99.90
997;DHT22;487;50.126;8.698;2023-02-26T20:56:18;1.60;99.90
997;DHT22;487;50.126;8.698;2023-02-26T20:58:46;1.60;99.90
997;DHT22;487;50.126;8.698;2023-02-26T21:01:15;1.60;99.90
997;DHT22;487;50.126;8.698;2023-02-26T21:03:43;1.60;99.90
997;DHT22;487;50.126;8.698;2023-02-26T21:06:12;1.50;99.90
997;DHT22;487;50.126;8.698;2023-02-26T21:08:40;1.60;99.90
997;DHT22;487;50.126;8.698;2023-02-26T21:11:09;1.60;99.90
997;DHT22;487;50.126;8.698;2023-02-26T21:13:36;1.50;99.90
997;DHT22;487;50.126;8.698;2023-02-26T21:16:04;1.50;99.90
997;DHT22;487;50.126;8.698;2023-02-26T21:18:32;1.40;99.90
997;DHT22;487;50.126;8.698;2023-02-26T21:21:01;1.40;99.90
997;DHT22;487;50.126;8.698;2023-02-26T21:23:31;1.40;99.90
997;DHT22;487;50.126;8.698;2023-02-26T21:25:59;1.40;99.90
997;DHT22;487;50.126;8.698;2023-02-26T21:28:29;1.40;99.90
997;DHT22;487;50.126;8.698;2023-02-26T21:30:56;1.40;99.90
997;DHT22;487;50.126;8.698;2023-02-26T21:33:24;1.40;99.90
997;DHT22;487;50.126;8.698;2023-02-26T21:35:52;1.30;99.90
997;DHT22;487;50.126;8.698;2023-02-26T21:38:20;1.40;99.90
997;DHT22;487;50.126;8.698;2023-02-26T21:40:49;1.30;99.90
997;DHT22;487;50.126;8.698;2023-02-26T21:43:19;1.30;99.90
997;DHT22;487;50.126;8.698;2023-02-26T21:45:47;0.50;99.90
997;DHT22;487;50.126;8.698;2023-02-26T21:48:16;1.30;99.90
997;DHT22;487;50.126;8.698;2023-02-26T21:50:43;1.30;99.90
997;DHT22;487;50.126;8.698;2023-02-26T21:53:13;1.20;99.90
997;DHT22;487;50.126;8.698;2023-02-26T21:55:41;1.20;99.90
997;DHT22;487;50.126;8.698;2023-02-26T21:58:10;1.20;99.90
997;DHT22;487;50.126;8.698;2023-02-26T22:00:38;1.20;99.90
997;DHT22;487;50.126;8.698;2023-02-26T22:03:06;1.20;99.90